sensor_id;sensor_type;location;lat;lon;timestamp;P1;durP1;ratioP1;P2;durP2;ratioP2
15183;SDS011;7693;49.266;7.104;2024-03-22T05:33:38;7.33;;;6.57;;
15183;SDS011;7693;49.266;7.104;2024-03-22T05:36:04;6.80;;;6.13;;
15183;SDS011;7693;49.266;7.104;2024-03-22T05:38:30;8.20;;;6.80;;
15183;SDS011;7693;49.266;7.104;2024-03-22T05:40:55;6.33;;;5.73;;
15183;SDS011;7693;49.266;7.104;2024-03-22T05:43:21;7.53;;;6.40;;
15183;SDS011;7693;49.266;7.104;2024-03-22T05:45:47;6.60;;;5.97;;
15183;SDS011;7693;49.266;7.104;2024-03-22T05:48:13;6.50;;;5.90;;
15183;SDS011;7693;49.266;7.104;2024-03-22T05:50:39;6.80;;;6.07;;
15183;SDS011;7693;49.266;7.104;2024-03-22T05:53:06;7.63;;;5.67;;
15183;SDS011;7693;49.266;7.104;2024-03-22T05:55:31;6.70;;;6.10;;
15183;SDS011;7693;49.266;7.104;2024-03-22T05:57:57;6.67;;;6.17;;
15183;SDS011;7693;49.266;7.104;2024-03-22T06:00:23;6.83;;;6.13;;
15183;SDS011;7693;49.266;7.104;2024-03-22T06:02:48;7.87;;;6.30;;
15183;SDS011;7693;49.266;7.104;2024-03-22T06:05:14;6.60;;;6.10;;
15183;SDS011;7693;49.266;7.104;2024-03-22T06:07:40;8.17;;;7.03;;
15183;SDS011;7693;49.266;7.104;2024-03-22T06:10:07;9.40;;;8.60;;
15183;SDS011;7693;49.266;7.104;2024-03-22T06:12:35;9.37;;;8.43;;
15183;SDS011;7693;49.266;7.104;2024-03-22T06:15:01;15.90;;;14.30;;
15183;SDS011;7693;49.266;7.104;2024-03-22T06:17:28;18.03;;;16.23;;
15183;SDS011;7693;49.266;7.104;2024-03-22T06:19:53;19.77;;;17.80;;
15183;SDS011;7693;49.266;7.104;2024-03-22T06:22:19;22.47;;;20.00;;
15183;SDS011;7693;49.266;7.104;2024-03-22T06:24:45;18.93;;;17.03;;
15183;SDS011;7693;49.266;7.104;2024-03-22T06:27:11;20.07;;;17.60;;
15183;SDS011;7693;49.266;7.104;2024-03-22T06:29:36;17.10;;;15.13;;
15183;SDS011;7693;49.266;7.104;2024-03-22T06:32:02;14.07;;;12.10;;
15183;SDS011;7693;49.266;7.104;2024-03-22T06:34:28;22.40;;;15.40;;
15183;SDS011;7693;49.266;7.104;2024-03-22T06:36:53;16.77;;;15.17;;
15183;SDS011;7693;49.266;7.104;2024-03-22T06:39:19;19.93;;;17.77;;
15183;SDS011;7693;49.266;7.104;2024-03-22T06:41:45;23.77;;;21.47;;
15183;SDS011;7693;49.266;7.104;2024-03-22T06:44:11;22.63;;;20.53;;
15183;SDS011;7693;49.266;7.104;2024-03-22T06:46:39;26.13;;;23.53;;
15183;SDS011;7693;49.266;7.104;2024-03-22T06:49:05;29.63;;;26.70;;
15183;SDS011;7693;49.266;7.104;2024-03-22T06:51:30;30.30;;;27.40;;
15183;SDS011;7693;49.266;7.104;2024-03-22T06:53:56;26.87;;;24.03;;
15183;SDS011;7693;49.266;7.104;2024-03-22T06:56:21;26.10;;;23.40;;
15183;SDS011;7693;49.266;7.104;2024-03-22T06:58:47;27.30;;;24.70;;
15183;SDS011;7693;49.266;7.104;2024-03-22T07:01:13;26.33;;;23.73;;
15183;SDS011;7693;49.266;7.104;2024-03-22T07:03:38;29.87;;;26.83;;
15183;SDS011;7693;49.266;7.104;2024-03-22T07:06:04;29.13;;;26.23;;
15183;SDS011;7693;49.266;7.104;2024-03-22T07:08:32;29.47;;;26.33;;
15183;SDS011;7693;49.266;7.104;2024-03-22T07:10:59;30.17;;;27.20;;
15183;SDS011;7693;49.266;7.104;2024-03-22T07:13:24;28.50;;;25.07;;
15183;SDS011;7693;49.266;7.104;2024-03-22T07:15:50;26.87;;;24.37;;
15183;SDS011;7693;49.266;7.104;2024-03-22T07:18:16;30.30;;;27.20;;
15183;SDS011;7693;49.266;7.104;2024-03-22T07:20:41;32.60;;;29.13;;
15183;SDS011;7693;49.266;7.104;2024-03-22T07:23:07;31.03;;;27.93;;
15183;SDS011;7693;49.266;7.104;2024-03-22T07:25:33;28.03;;;25.30;;
15183;SDS011;7693;49.266;7.104;2024-03-22T07:27:59;28.73;;;25.97;;
15183;SDS011;7693;49.266;7.104;2024-03-22T07:30:25;27.30;;;24.43;;
15183;SDS011;7693;49.266;7.104;2024-03-22T07:32:50;25.97;;;23.37;;
15183;SDS011;7693;49.266;7.104;2024-03-22T07:35:16;28.43;;;25.40;;
15183;SDS011;7693;49.266;7.104;2024-03-22T07:37:41;28.17;;;24.10;;
15183;SDS011;7693;49.266;7.104;2024-03-22T07:40:07;26.97;;;24.13;;
15183;SDS011;7693;49.266;7.104;2024-03-22T07:42:33;24.80;;;21.93;;
15183;SDS011;7693;49.266;7.104;2024-03-22T07:44:59;23.77;;;20.43;;
15183;SDS011;7693;49.266;7.104;2024-03-22T07:47:25;22.20;;;19.90;;
15183;SDS011;7693;49.266;7.104;2024-03-22T07:49:50;18.87;;;16.67;;
15183;SDS011;7693;49.266;7.104;2024-03-22T07:52:16;17.10;;;15.27;;
15183;SDS011;7693;49.266;7.104;2024-03-22T07:54:42;16.37;;;14.77;;
15183;SDS011;7693;49.266;7.104;2024-03-22T07:57:08;16.23;;;14.63;;
15183;SDS011;7693;49.266;7.104;2024-03-22T07:59:35;15.40;;;13.50;;
15183;SDS011;7693;49.266;7.104;2024-03-22T08:02:01;14.60;;;13.13;;
15183;SDS011;7693;49.266;7.104;2024-03-22T08:04:28;15.07;;;12.87;;
15183;SDS011;7693;49.266;7.104;2024-03-22T08:06:54;15.70;;;12.80;;
15183;SDS011;7693;49.266;7.104;2024-03-22T08:09:19;13.07;;;11.67;;
15183;SDS011;7693;49.266;7.104;2024-03-22T08:11:45;15.50;;;11.10;;
15183;SDS011;7693;49.266;7.104;2024-03-22T08:14:11;16.63;;;10.37;;
15183;SDS011;7693;49.266;7.104;2024-03-22T08:16:36;9.60;;;7.63;;
15183;SDS011;7693;49.266;7.104;2024-03-22T08:19:02;9.03;;;7.33;;
15183;SDS011;7693;49.266;7.104;2024-03-22T08:21:27;8.70;;;7.90;;
15183;SDS011;7693;49.266;7.104;2024-03-22T08:23:53;7.70;;;7.10;;
15183;SDS011;7693;49.266;7.104;2024-03-22T08:26:19;7.40;;;6.70;;
15183;SDS011;7693;49.266;7.104;2024-03-22T08:28:45;8.17;;;7.47;;
15183;SDS011;7693;49.266;7.104;2024-03-22T08:31:12;7.33;;;6.63;;
15183;SDS011;7693;49.266;7.104;2024-03-22T08:33:38;8.87;;;7.30;;
15183;SDS011;7693;49.266;7.104;2024-03-22T08:36:04;10.60;;;7.63;;
15183;SDS011;7693;49.266;7.104;2024-03-22T08:38:29;8.30;;;7.53;;
15183;SDS011;7693;49.266;7.104;2024-03-22T08:40:55;13.03;;;8.43;;
15183;SDS011;7693;49.266;7.104;2024-03-22T08:43:21;12.03;;;8.33;;
15183;SDS011;7693;49.266;7.104;2024-03-22T08:45:47;9.30;;;8.50;;
15183;SDS011;7693;49.266;7.104;2024-03-22T08:48:13;10.20;;;9.10;;
15183;SDS011;7693;49.266;7.104;2024-03-22T08:50:41;9.03;;;8.33;;
15183;SDS011;7693;49.266;7.104;2024-03-22T08:53:07;9.97;;;8.97;;
15183;SDS011;7693;49.266;7.104;2024-03-22T08:55:33;10.73;;;8.30;;
15183;SDS011;7693;49.266;7.104;2024-03-22T08:57:59;9.87;;;7.67;;
15183;SDS011;7693;49.266;7.104;2024-03-22T09:00:24;8.43;;;7.73;;
15183;SDS011;7693;49.266;7.104;2024-03-22T09:02:50;11.13;;;8.27;;
15183;SDS011;7693;49.266;7.104;2024-03-22T09:05:15;8.87;;;8.17;;
15183;SDS011;7693;49.266;7.104;2024-03-22T09:07:42;9.33;;;8.43;;
15183;SDS011;7693;49.266;7.104;2024-03-22T09:10:07;10.50;;;8.03;;
15183;SDS011;7693;49.266;7.104;2024-03-22T09:12:34;8.73;;;8.00;;
15183;SDS011;7693;49.266;7.104;2024-03-22T09:15:00;9.50;;;8.33;;
15183;SDS011;7693;49.266;7.104;2024-03-22T09:17:27;11.03;;;8.63;;
15183;SDS011;7693;49.266;7.104;2024-03-22T09:19:52;8.77;;;7.87;;
15183;SDS011;7693;49.266;7.104;2024-03-22T09:22:18;9.00;;;7.80;;
15183;SDS011;7693;49.266;7.104;2024-03-22T09:24:43;8.27;;;7.50;;
15183;SDS011;7693;49.266;7.104;2024-03-22T09:27:09;8.60;;;7.73;;
15183;SDS011;7693;49.266;7.104;2024-03-22T09:29:38;11.40;;;7.60;;
15183;SDS011;7693;49.266;7.104;2024-03-22T09:32:03;10.43;;;8.50;;
15183;SDS011;7693;49.266;7.104;2024-03-22T09:34:29;10.93;;;8.33;;
15183;SDS011;7693;49.266;7.104;2024-03-22T09:36:56;10.73;;;8.77;;
15183;SDS011;7693;49.266;7.104;2024-03-22T09:39:22;9.17;;;8.27;;
15183;SDS011;7693;49.266;7.104;2024-03-22T09:41:48;9.87;;;8.87;;
15183;SDS011;7693;49.266;7.104;2024-03-22T09:44:17;9.13;;;8.17;;
15183;SDS011;7693;49.266;7.104;2024-03-22T09:46:44;11.00;;;9.93;;
15183;SDS011;7693;49.266;7.104;2024-03-22T09:49:11;9.63;;;8.67;;
15183;SDS011;7693;49.266;7.104;2024-03-22T09:51:37;15.45;;;9.27;;
15183;SDS011;7693;49.266;7.104;2024-03-22T09:54:04;10.17;;;9.27;;
15183;SDS011;7693;49.266;7.104;2024-03-22T09:56:30;10.77;;;8.73;;
15183;SDS011;7693;49.266;7.104;2024-03-22T09:58:57;10.43;;;9.50;;
15183;SDS011;7693;49.266;7.104;2024-03-22T10:01:26;10.33;;;9.33;;
15183;SDS011;7693;49.266;7.104;2024-03-22T10:03:52;12.83;;;9.80;;
15183;SDS011;7693;49.266;7.104;2024-03-22T10:06:19;11.70;;;9.57;;
15183;SDS011;7693;49.266;7.104;2024-03-22T10:08:45;11.57;;;9.80;;
15183;SDS011;7693;49.266;7.104;2024-03-22T10:11:11;11.13;;;10.07;;
15183;SDS011;7693;49.266;7.104;2024-03-22T10:13:37;10.37;;;9.37;;
15183;SDS011;7693;49.266;7.104;2024-03-22T10:16:03;10.83;;;9.73;;
15183;SDS011;7693;49.266;7.104;2024-03-22T10:18:29;11.07;;;9.97;;
15183;SDS011;7693;49.266;7.104;2024-03-22T10:23:26;11.52;;;10.23;;
15183;SDS011;7693;49.266;7.104;2024-03-22T10:25:52;11.05;;;9.93;;
15183;SDS011;7693;49.266;7.104;2024-03-22T10:28:17;11.40;;;10.15;;
15183;SDS011;7693;49.266;7.104;2024-03-22T10:30:43;10.60;;;9.70;;
15183;SDS011;7693;49.266;7.104;2024-03-22T10:33:11;11.30;;;10.10;;
15183;SDS011;7693;49.266;7.104;2024-03-22T10:35:38;13.45;;;10.70;;
15183;SDS011;7693;49.266;7.104;2024-03-22T10:38:05;11.70;;;10.30;;
15183;SDS011;7693;49.266;7.104;2024-03-22T10:40:32;10.88;;;9.90;;
15183;SDS011;7693;49.266;7.104;2024-03-22T10:42:59;12.52;;;11.07;;
15183;SDS011;7693;49.266;7.104;2024-03-22T10:45:27;11.75;;;10.63;;
15183;SDS011;7693;49.266;7.104;2024-03-22T10:47:55;10.93;;;9.98;;
15183;SDS011;7693;49.266;7.104;2024-03-22T10:50:20;11.40;;;10.20;;
15183;SDS011;7693;49.266;7.104;2024-03-22T10:52:51;12.38;;;11.10;;
15183;SDS011;7693;49.266;7.104;2024-03-22T10:55:41;11.43;;;10.43;;
15183;SDS011;7693;49.266;7.104;2024-03-22T10:58:06;15.10;;;11.65;;
15183;SDS011;7693;49.266;7.104;2024-03-22T11:00:33;11.88;;;10.73;;
15183;SDS011;7693;49.266;7.104;2024-03-22T13:19:14;10.93;;;9.85;;
15183;SDS011;7693;49.266;7.104;2024-03-22T13:21:40;10.13;;;8.85;;
15183;SDS011;7693;49.266;7.104;2024-03-22T13:24:06;9.48;;;8.35;;
15183;SDS011;7693;49.266;7.104;2024-03-22T13:26:31;11.50;;;8.48;;
15183;SDS011;7693;49.266;7.104;2024-03-22T13:28:57;12.32;;;11.13;;
15183;SDS011;7693;49.266;7.104;2024-03-22T13:31:23;9.68;;;8.68;;
15183;SDS011;7693;49.266;7.104;2024-03-22T13:33:48;9.73;;;8.85;;
15183;SDS011;7693;49.266;7.104;2024-03-22T13:36:14;9.52;;;8.75;;
15183;SDS011;7693;49.266;7.104;2024-03-22T13:38:39;8.45;;;7.65;;
15183;SDS011;7693;49.266;7.104;2024-03-22T13:41:05;9.85;;;9.05;;
15183;SDS011;7693;49.266;7.104;2024-03-22T13:43:31;9.68;;;8.88;;
15183;SDS011;7693;49.266;7.104;2024-03-22T13:45:56;15.85;;;8.40;;
15183;SDS011;7693;49.266;7.104;2024-03-22T13:48:23;9.40;;;8.32;;
15183;SDS011;7693;49.266;7.104;2024-03-22T13:50:53;9.02;;;8.23;;
15183;SDS011;7693;49.266;7.104;2024-03-22T13:53:20;8.88;;;7.97;;
15183;SDS011;7693;49.266;7.104;2024-03-22T13:55:49;10.27;;;8.75;;
15183;SDS011;7693;49.266;7.104;2024-03-22T13:58:16;8.65;;;7.85;;
15183;SDS011;7693;49.266;7.104;2024-03-22T14:00:41;8.45;;;7.45;;
15183;SDS011;7693;49.266;7.104;2024-03-22T14:03:07;10.10;;;9.02;;
15183;SDS011;7693;49.266;7.104;2024-03-22T14:05:33;8.93;;;8.15;;
15183;SDS011;7693;49.266;7.104;2024-03-22T14:07:59;10.02;;;8.43;;
15183;SDS011;7693;49.266;7.104;2024-03-22T14:10:25;9.15;;;8.20;;
15183;SDS011;7693;49.266;7.104;2024-03-22T14:12:56;8.82;;;8.02;;
15183;SDS011;7693;49.266;7.104;2024-03-22T14:15:22;9.63;;;8.63;;
15183;SDS011;7693;49.266;7.104;2024-03-22T14:17:50;10.93;;;9.60;;
15183;SDS011;7693;49.266;7.104;2024-03-22T14:20:16;10.48;;;9.43;;
15183;SDS011;7693;49.266;7.104;2024-03-22T14:22:42;11.35;;;10.25;;
15183;SDS011;7693;49.266;7.104;2024-03-22T14:25:07;12.55;;;10.38;;
15183;SDS011;7693;49.266;7.104;2024-03-22T14:27:34;10.82;;;9.93;;
15183;SDS011;7693;49.266;7.104;2024-03-22T14:30:00;12.45;;;10.25;;
15183;SDS011;7693;49.266;7.104;2024-03-22T14:32:27;10.23;;;9.32;;
15183;SDS011;7693;49.266;7.104;2024-03-22T14:34:53;11.00;;;9.98;;
15183;SDS011;7693;49.266;7.104;2024-03-22T14:37:19;12.20;;;10.07;;
15183;SDS011;7693;49.266;7.104;2024-03-22T14:39:44;11.00;;;9.82;;
15183;SDS011;7693;49.266;7.104;2024-03-22T14:42:11;9.73;;;8.90;;
15183;SDS011;7693;49.266;7.104;2024-03-22T14:44:37;10.02;;;8.63;;
15183;SDS011;7693;49.266;7.104;2024-03-22T14:47:03;9.73;;;8.48;;
15183;SDS011;7693;49.266;7.104;2024-03-22T14:49:29;9.30;;;8.38;;
15183;SDS011;7693;49.266;7.104;2024-03-22T14:51:54;9.05;;;8.00;;
15183;SDS011;7693;49.266;7.104;2024-03-22T14:54:20;9.30;;;8.50;;
15183;SDS011;7693;49.266;7.104;2024-03-22T14:56:45;8.30;;;7.60;;
15183;SDS011;7693;49.266;7.104;2024-03-22T14:59:11;8.57;;;7.80;;
15183;SDS011;7693;49.266;7.104;2024-03-22T15:01:37;8.23;;;7.43;;
15183;SDS011;7693;49.266;7.104;2024-03-22T15:04:04;8.30;;;7.60;;
15183;SDS011;7693;49.266;7.104;2024-03-22T15:06:29;8.88;;;7.57;;
15183;SDS011;7693;49.266;7.104;2024-03-22T15:08:55;8.88;;;8.00;;
15183;SDS011;7693;49.266;7.104;2024-03-22T15:11:21;7.88;;;7.13;;
15183;SDS011;7693;49.266;7.104;2024-03-22T15:13:46;7.60;;;6.85;;
15183;SDS011;7693;49.266;7.104;2024-03-22T15:16:12;8.30;;;7.50;;
15183;SDS011;7693;49.266;7.104;2024-03-22T15:18:38;8.52;;;7.72;;
15183;SDS011;7693;49.266;7.104;2024-03-22T15:21:06;8.02;;;7.22;;
15183;SDS011;7693;49.266;7.104;2024-03-22T15:23:33;9.18;;;7.40;;
15183;SDS011;7693;49.266;7.104;2024-03-22T15:25:58;9.25;;;7.03;;
15183;SDS011;7693;49.266;7.104;2024-03-22T15:28:24;7.93;;;7.20;;
15183;SDS011;7693;49.266;7.104;2024-03-22T15:30:50;7.05;;;6.50;;
15183;SDS011;7693;49.266;7.104;2024-03-22T15:33:16;6.68;;;6.10;;
15183;SDS011;7693;49.266;7.104;2024-03-22T15:35:42;7.45;;;6.05;;
15183;SDS011;7693;49.266;7.104;2024-03-22T15:38:12;6.47;;;5.97;;
15183;SDS011;7693;49.266;7.104;2024-03-22T15:40:38;6.05;;;5.65;;
15183;SDS011;7693;49.266;7.104;2024-03-22T15:43:04;6.28;;;5.78;;
15183;SDS011;7693;49.266;7.104;2024-03-22T15:45:33;8.38;;;6.13;;
15183;SDS011;7693;49.266;7.104;2024-03-22T15:47:59;6.38;;;5.80;;
15183;SDS011;7693;49.266;7.104;2024-03-22T15:50:25;7.90;;;5.85;;
15183;SDS011;7693;49.266;7.104;2024-03-22T15:52:52;5.45;;;5.05;;
15183;SDS011;7693;49.266;7.104;2024-03-22T15:55:18;7.20;;;5.53;;
15183;SDS011;7693;49.266;7.104;2024-03-22T15:57:43;6.15;;;5.65;;
15183;SDS011;7693;49.266;7.104;2024-03-22T16:00:09;5.97;;;5.35;;
15183;SDS011;7693;49.266;7.104;2024-03-22T16:02:37;7.38;;;5.95;;
15183;SDS011;7693;49.266;7.104;2024-03-22T16:05:04;8.73;;;6.18;;
15183;SDS011;7693;49.266;7.104;2024-03-22T16:07:30;5.63;;;5.22;;
15183;SDS011;7693;49.266;7.104;2024-03-22T16:09:55;5.75;;;5.35;;
15183;SDS011;7693;49.266;7.104;2024-03-22T16:12:21;5.28;;;4.78;;
15183;SDS011;7693;49.266;7.104;2024-03-22T16:14:47;5.47;;;5.07;;
15183;SDS011;7693;49.266;7.104;2024-03-22T16:17:12;4.85;;;4.53;;
15183;SDS011;7693;49.266;7.104;2024-03-22T16:19:38;6.03;;;5.53;;
15183;SDS011;7693;49.266;7.104;2024-03-22T16:22:03;4.93;;;4.55;;
15183;SDS011;7693;49.266;7.104;2024-03-22T16:24:29;4.30;;;3.85;;
15183;SDS011;7693;49.266;7.104;2024-03-22T16:26:55;4.50;;;4.15;;
15183;SDS011;7693;49.266;7.104;2024-03-22T16:29:21;4.20;;;3.88;;
15183;SDS011;7693;49.266;7.104;2024-03-22T16:31:49;4.00;;;3.45;;
15183;SDS011;7693;49.266;7.104;2024-03-22T16:34:18;4.38;;;3.45;;
15183;SDS011;7693;49.266;7.104;2024-03-22T16:36:44;5.05;;;3.63;;
15183;SDS011;7693;49.266;7.104;2024-03-22T16:39:10;3.30;;;3.08;;
15183;SDS011;7693;49.266;7.104;2024-03-22T16:41:35;3.92;;;3.63;;
15183;SDS011;7693;49.266;7.104;2024-03-22T16:44:01;3.50;;;3.30;;
15183;SDS011;7693;49.266;7.104;2024-03-22T16:46:27;3.70;;;3.15;;
15183;SDS011;7693;49.266;7.104;2024-03-22T16:48:52;3.05;;;2.95;;
15183;SDS011;7693;49.266;7.104;2024-03-22T16:51:18;3.40;;;3.17;;
15183;SDS011;7693;49.266;7.104;2024-03-22T16:53:43;4.30;;;3.08;;
15183;SDS011;7693;49.266;7.104;2024-03-22T16:56:09;3.20;;;3.00;;
15183;SDS011;7693;49.266;7.104;2024-03-22T16:58:35;3.80;;;2.85;;
15183;SDS011;7693;49.266;7.104;2024-03-22T17:01:02;3.80;;;3.00;;
15183;SDS011;7693;49.266;7.104;2024-03-22T17:03:28;3.42;;;3.20;;
15183;SDS011;7693;49.266;7.104;2024-03-22T17:05:54;3.97;;;3.58;;
15183;SDS011;7693;49.266;7.104;2024-03-22T17:08:19;3.55;;;3.30;;
15183;SDS011;7693;49.266;7.104;2024-03-22T17:10:45;4.18;;;3.78;;
15183;SDS011;7693;49.266;7.104;2024-03-22T17:13:11;4.30;;;3.90;;
15183;SDS011;7693;49.266;7.104;2024-03-22T17:15:37;4.72;;;3.55;;
15183;SDS011;7693;49.266;7.104;2024-03-22T17:18:02;4.28;;;3.70;;
15183;SDS011;7693;49.266;7.104;2024-03-22T17:20:28;4.32;;;3.72;;
15183;SDS011;7693;49.266;7.104;2024-03-22T17:22:55;4.13;;;3.72;;
15183;SDS011;7693;49.266;7.104;2024-03-22T17:25:20;3.70;;;3.50;;
15183;SDS011;7693;49.266;7.104;2024-03-22T17:27:49;4.22;;;4.03;;
15183;SDS011;7693;49.266;7.104;2024-03-22T17:30:14;6.35;;;4.18;;
15183;SDS011;7693;49.266;7.104;2024-03-22T17:32:41;6.75;;;3.88;;
15183;SDS011;7693;49.266;7.104;2024-03-22T17:35:06;3.90;;;3.70;;
15183;SDS011;7693;49.266;7.104;2024-03-22T17:37:34;4.35;;;3.80;;
15183;SDS011;7693;49.266;7.104;2024-03-22T17:40:01;4.95;;;4.55;;
15183;SDS011;7693;49.266;7.104;2024-03-22T17:42:27;6.82;;;5.03;;
15183;SDS011;7693;49.266;7.104;2024-03-22T17:44:53;5.18;;;4.78;;
15183;SDS011;7693;49.266;7.104;2024-03-22T17:47:18;5.60;;;5.20;;
15183;SDS011;7693;49.266;7.104;2024-03-22T17:49:45;5.78;;;5.30;;
15183;SDS011;7693;49.266;7.104;2024-03-22T17:52:12;5.68;;;5.22;;
15183;SDS011;7693;49.266;7.104;2024-03-22T17:54:38;6.35;;;5.30;;
15183;SDS011;7693;49.266;7.104;2024-03-22T17:57:03;6.10;;;5.63;;
15183;SDS011;7693;49.266;7.104;2024-03-22T17:59:29;5.95;;;5.25;;
15183;SDS011;7693;49.266;7.104;2024-03-22T18:01:55;6.85;;;5.10;;
15183;SDS011;7693;49.266;7.104;2024-03-22T18:04:20;5.95;;;5.47;;
15183;SDS011;7693;49.266;7.104;2024-03-22T18:06:46;6.38;;;5.88;;
15183;SDS011;7693;49.266;7.104;2024-03-22T18:09:11;6.85;;;6.25;;
15183;SDS011;7693;49.266;7.104;2024-03-22T18:11:39;6.07;;;5.43;;
15183;SDS011;7693;49.266;7.104;2024-03-22T18:14:05;8.25;;;6.43;;
15183;SDS011;7693;49.266;7.104;2024-03-22T18:16:31;6.63;;;5.88;;
15183;SDS011;7693;49.266;7.104;2024-03-22T18:18:57;6.00;;;5.50;;
15183;SDS011;7693;49.266;7.104;2024-03-22T18:21:23;7.93;;;6.15;;
15183;SDS011;7693;49.266;7.104;2024-03-22T18:23:50;8.02;;;7.35;;
15183;SDS011;7693;49.266;7.104;2024-03-22T18:26:16;7.18;;;6.57;;
15183;SDS011;7693;49.266;7.104;2024-03-22T18:28:42;8.25;;;6.80;;
15183;SDS011;7693;49.266;7.104;2024-03-22T18:31:07;6.75;;;5.95;;
15183;SDS011;7693;49.266;7.104;2024-03-22T18:33:34;8.02;;;6.55;;
15183;SDS011;7693;49.266;7.104;2024-03-22T18:36:01;11.38;;;6.40;;
15183;SDS011;7693;49.266;7.104;2024-03-22T18:38:31;7.05;;;6.35;;
15183;SDS011;7693;49.266;7.104;2024-03-22T18:40:57;7.47;;;6.70;;
15183;SDS011;7693;49.266;7.104;2024-03-22T18:43:23;8.05;;;7.30;;
15183;SDS011;7693;49.266;7.104;2024-03-22T18:45:49;6.57;;;5.97;;
15183;SDS011;7693;49.266;7.104;2024-03-22T18:48:15;8.90;;;6.83;;
15183;SDS011;7693;49.266;7.104;2024-03-22T18:50:40;9.20;;;6.90;;
15183;SDS011;7693;49.266;7.104;2024-03-22T18:53:07;8.13;;;6.70;;
15183;SDS011;7693;49.266;7.104;2024-03-22T18:55:33;10.10;;;7.05;;
15183;SDS011;7693;49.266;7.104;2024-03-22T18:57:59;7.17;;;6.53;;
15183;SDS011;7693;49.266;7.104;2024-03-22T19:00:24;6.77;;;6.27;;
15183;SDS011;7693;49.266;7.104;2024-03-22T19:02:50;11.37;;;8.43;;
15183;SDS011;7693;49.266;7.104;2024-03-22T19:05:16;6.37;;;5.97;;
15183;SDS011;7693;49.266;7.104;2024-03-22T19:07:42;6.95;;;6.45;;
15183;SDS011;7693;49.266;7.104;2024-03-22T19:10:08;7.10;;;6.50;;
15183;SDS011;7693;49.266;7.104;2024-03-22T19:12:33;7.60;;;6.90;;
15183;SDS011;7693;49.266;7.104;2024-03-22T19:14:59;9.53;;;7.20;;
15183;SDS011;7693;49.266;7.104;2024-03-22T19:17:25;8.97;;;7.47;;
15183;SDS011;7693;49.266;7.104;2024-03-22T19:19:50;12.33;;;8.67;;
15183;SDS011;7693;49.266;7.104;2024-03-22T19:22:16;13.50;;;6.73;;
15183;SDS011;7693;49.266;7.104;2024-03-22T19:24:42;7.47;;;6.77;;
15183;SDS011;7693;49.266;7.104;2024-03-22T19:27:07;7.23;;;6.60;;
15183;SDS011;7693;49.266;7.104;2024-03-22T19:29:33;7.37;;;6.60;;
15183;SDS011;7693;49.266;7.104;2024-03-22T19:31:59;9.57;;;6.47;;
15183;SDS011;7693;49.266;7.104;2024-03-22T19:34:24;8.20;;;6.17;;
15183;SDS011;7693;49.266;7.104;2024-03-22T19:36:50;6.80;;;6.20;;
15183;SDS011;7693;49.266;7.104;2024-03-22T19:39:16;6.27;;;5.73;;
15183;SDS011;7693;49.266;7.104;2024-03-22T19:41:41;6.57;;;5.90;;
15183;SDS011;7693;49.266;7.104;2024-03-22T19:44:07;6.57;;;5.80;;
15183;SDS011;7693;49.266;7.104;2024-03-22T19:46:33;7.30;;;5.93;;
15183;SDS011;7693;49.266;7.104;2024-03-22T19:49:01;7.00;;;6.13;;
15183;SDS011;7693;49.266;7.104;2024-03-22T19:51:27;8.33;;;6.10;;
15183;SDS011;7693;49.266;7.104;2024-03-22T19:53:53;7.83;;;6.07;;
15183;SDS011;7693;49.266;7.104;2024-03-22T19:56:19;11.03;;;6.00;;
